Time;durP1;ratioP1;P1;durP2;ratioP2;P2;SDS_P1;SDS_P2;PMS_P1;PMS_P2;Temp;Humidity;BMP_temperature;BMP_pressure;BME280_temperature;BME280_humidity;BME280_pressure;Samples;Min_cycle;Max_cycle;Signal;HPM_P1;HPM_P2
2021/08/31 00:00:11;;;;;;;1.30;1.20;;;;;;;16.25;77.22;99131.38;5075474;28;42244;-86
2021/08/31 00:02:40;;;;;;;1.23;1.13;;;;;;;16.24;77.45;99137.69;5093250;28;40043;-86
2021/08/31 00:05:10;;;;;;;1.03;1.03;;;;;;;16.15;77.16;99122.41;5094111;28;40665;-87
2021/08/31 00:07:37;;;;;;;1.10;1.00;;;;;;;16.25;77.29;99131.38;5094682;28;42075;-90
2021/08/31 00:10:06;;;;;;;0.90;0.70;;;;;;;16.24;77.33;99144.84;5077228;28;42461;-86
2021/08/31 00:12:34;;;;;;;1.20;1.00;;;;;;;16.30;77.11;99147.03;5076747;28;39855;-86
2021/08/31 00:15:03;;;;;;;0.80;0.70;;;;;;;16.30;77.13;99141.69;5094455;28;42218;-88
2021/08/31 00:17:31;;;;;;;1.17;1.07;;;;;;;16.27;77.31;99142.78;5093408;28;41701;-86
2021/08/31 00:20:00;;;;;;;1.30;0.90;;;;;;;16.38;76.99;99152.59;5093760;28;42678;-84
2021/08/31 00:22:28;;;;;;;0.80;0.80;;;;;;;16.32;76.97;99145.09;5076241;28;38935;-92
2021/08/31 00:24:55;;;;;;;0.90;0.90;;;;;;;16.30;76.77;99131.00;5077046;28;42099;-86
2021/08/31 00:27:23;;;;;;;1.30;1.20;;;;;;;16.29;77.16;99126.63;5093879;28;42536;-83
2021/08/31 00:29:50;;;;;;;1.10;1.00;;;;;;;16.44;76.93;99155.59;5106189;28;41156;-83
2021/08/31 00:32:18;;;;;;;1.83;1.30;;;;;;;16.52;77.18;99153.16;5099770;28;40130;-89
2021/08/31 00:34:53;;;;;;;2.50;1.43;;;;;;;16.47;77.07;99143.81;5100634;28;41244;-82
2021/08/31 00:37:37;;;;;;;1.90;1.50;;;;;;;16.58;77.19;99161.63;5116840;28;43020;-86
2021/08/31 00:40:05;;;;;;;0.93;0.93;;;;;;;16.46;77.26;99142.97;5098688;28;41302;-87
2021/08/31 00:42:33;;;;;;;1.20;1.10;;;;;;;16.50;77.03;99160.47;5100276;28;39159;-84
2021/08/31 00:45:01;;;;;;;0.80;0.80;;;;;;;16.61;77.19;99166.75;5088828;28;40907;-82
2021/08/31 00:47:28;;;;;;;1.10;1.00;;;;;;;16.60;77.26;99165.91;5089619;27;42317;-82
2021/08/31 00:49:56;;;;;;;1.70;1.07;;;;;;;16.60;77.27;99163.22;5101142;27;41273;-86
2021/08/31 00:52:23;;;;;;;1.40;1.00;;;;;;;16.55;77.05;99156.56;5122525;27;38761;-85
2021/08/31 00:54:53;;;;;;;1.20;1.10;;;;;;;16.46;76.83;99142.13;5124880;27;42000;-84
2021/08/31 00:57:20;;;;;;;0.83;0.83;;;;;;;16.65;76.83;99178.94;5096521;27;42715;-85
2021/08/31 00:59:48;;;;;;;2.30;1.13;;;;;;;16.55;76.91;99160.09;5096437;27;42560;-85
2021/08/31 01:02:16;;;;;;;1.20;1.10;;;;;;;16.57;77.05;99160.78;5111959;27;39774;-92
2021/08/31 01:04:43;;;;;;;0.80;0.80;;;;;;;16.34;77.08;99122.59;5096804;27;40998;-86
2021/08/31 01:07:11;;;;;;;1.47;1.30;;;;;;;16.67;76.99;99182.34;5095757;27;41729;-85
2021/08/31 01:09:40;;;;;;;2.20;2.00;;;;;;;16.62;76.84;99169.34;5096484;27;42699;-88
2021/08/31 01:12:10;;;;;;;1.93;1.40;;;;;;;16.65;77.13;99174.44;5097147;27;38995;-88
2021/08/31 01:14:38;;;;;;;1.23;1.00;;;;;;;16.61;76.77;99172.94;5114217;27;42690;-88
2021/08/31 01:17:05;;;;;;;1.47;1.37;;;;;;;16.55;76.81;99162.78;5097624;27;41968;-89
2021/08/31 01:19:33;;;;;;;1.40;0.97;;;;;;;16.66;76.92;99186.84;5096328;27;41920;-87
2021/08/31 01:22:04;;;;;;;1.10;1.00;;;;;;;16.66;76.93;99176.13;5096027;27;39224;-85
2021/08/31 01:24:32;;;;;;;0.83;0.83;;;;;;;16.58;76.97;99167.84;5096263;27;40466;-87
2021/08/31 01:27:02;;;;;;;1.40;1.17;;;;;;;16.73;76.86;99190.69;5113182;27;43180;-86
2021/08/31 01:29:32;;;;;;;1.47;1.37;;;;;;;16.75;77.04;99186.06;5095892;27;41739;-87
2021/08/31 01:32:00;;;;;;;0.90;0.90;;;;;;;16.69;77.06;99170.50;5095921;27;39408;-83
2021/08/31 01:34:28;;;;;;;1.10;1.00;;;;;;;16.77;76.73;99189.47;5094955;27;42045;-87
2021/08/31 01:36:57;;;;;;;0.97;0.97;;;;;;;16.75;76.80;99175.38;5095279;27;41708;-87
2021/08/31 01:39:25;;;;;;;1.40;1.30;;;;;;;16.81;76.61;99180.19;5095644;27;41357;-86
2021/08/31 01:41:52;;;;;;;1.00;0.97;;;;;;;16.69;76.70;99159.81;5096394;27;39918;-86
2021/08/31 01:44:22;;;;;;;1.83;1.67;;;;;;;16.83;77.16;99180.91;5094577;27;41102;-86
2021/08/31 01:46:49;;;;;;;1.07;0.97;;;;;;;16.76;76.58;99177.06;5095389;27;41957;-86
2021/08/31 01:49:17;;;;;;;1.20;1.10;;;;;;;16.73;76.85;99177.31;5112725;27;43240;-89
2021/08/31 01:51:44;;;;;;;1.37;1.10;;;;;;;16.67;76.71;99161.78;5092671;28;40220;-88
2021/08/31 01:54:12;;;;;;;0.83;0.60;;;;;;;16.73;76.56;99169.28;5091822;27;41915;-90
2021/08/31 01:56:40;;;;;;;0.90;0.90;;;;;;;16.74;76.84;99171.00;5108917;28;42995;-86
2021/08/31 01:59:07;;;;;;;1.17;1.07;;;;;;;16.83;76.53;99191.63;5126374;27;42350;-88
2021/08/31 02:01:39;;;;;;;1.17;1.07;;;;;;;16.83;76.64;99183.59;5095580;27;39020;-86
2021/08/31 02:04:07;;;;;;;1.00;1.00;;;;;;;16.75;76.51;99170.03;5094689;27;41945;-89
2021/08/31 02:06:34;;;;;;;1.20;1.10;;;;;;;16.75;76.54;99169.16;5095954;27;43125;-84
2021/08/31 02:09:02;;;;;;;1.57;1.20;;;;;;;16.79;76.29;99175.97;5116503;27;42614;-87
2021/08/31 02:11:29;;;;;;;1.13;1.00;;;;;;;16.83;76.43;99188.09;5099329;27;38866;-88
2021/08/31 02:13:57;;;;;;;1.43;1.20;;;;;;;16.87;76.38;99190.41;5098257;27;41695;-87
2021/08/31 02:16:24;;;;;;;0.83;0.80;;;;;;;16.80;76.48;99175.00;5098256;27;43226;-86
2021/08/31 02:18:53;;;;;;;1.20;1.10;;;;;;;16.79;76.26;99176.81;5098362;27;41700;-90
2021/08/31 02:21:21;;;;;;;1.00;0.90;;;;;;;16.88;76.51;99180.56;5116089;27;40186;-88
2021/08/31 02:23:49;;;;;;;0.83;0.83;;;;;;;16.80;76.41;99173.19;5099223;27;40752;-85
2021/08/31 02:26:17;;;;;;;0.97;0.90;;;;;;;16.77;76.45;99170.75;5099069;27;42175;-88
2021/08/31 02:28:44;;;;;;;0.73;0.73;;;;;;;16.81;76.21;99172.16;5098398;27;41535;-84
2021/08/31 02:31:12;;;;;;;0.83;0.83;;;;;;;16.87;76.12;99185.06;5116044;27;39811;-90
2021/08/31 02:33:40;;;;;;;1.00;0.90;;;;;;;16.78;76.46;99175.13;5115441;27;42410;-89
2021/08/31 02:36:09;;;;;;;1.03;0.90;;;;;;;16.82;76.46;99187.25;5098423;27;42038;-87
2021/08/31 02:38:36;;;;;;;1.53;0.80;;;;;;;16.84;76.13;99187.97;5098770;27;41637;-83
2021/08/31 02:41:04;;;;;;;1.37;1.00;;;;;;;16.86;76.15;99199.41;5115450;27;40749;-89
2021/08/31 02:43:32;;;;;;;2.30;1.37;;;;;;;16.81;75.99;99184.72;5098773;27;41734;-92
2021/08/31 02:45:59;;;;;;;1.20;1.10;;;;;;;16.82;76.07;99181.91;5097928;27;42612;-86
2021/08/31 02:48:27;;;;;;;1.43;1.10;;;;;;;16.82;76.01;99179.22;5098224;27;41178;-89
2021/08/31 02:50:54;;;;;;;0.87;0.87;;;;;;;16.92;75.94;99197.22;5108968;28;40138;-86
2021/08/31 02:53:23;;;;;;;1.10;1.00;;;;;;;16.93;75.99;99204.25;5078272;28;40764;-88
2021/08/31 02:55:50;;;;;;;0.90;0.80;;;;;;;16.82;75.99;99187.25;5078432;28;41847;-88
2021/08/31 02:58:18;;;;;;;1.17;1.10;;;;;;;16.92;76.13;99207.91;5077503;28;42025;-86
2021/08/31 03:00:53;;;;;;;1.73;1.20;;;;;;;16.83;76.34;99196.97;5078426;28;39200;-83
2021/08/31 03:03:21;;;;;;;1.47;1.10;;;;;;;16.93;76.47;99204.25;5093598;28;41046;-91
2021/08/31 03:05:48;;;;;;;0.83;0.83;;;;;;;16.82;76.28;99195.28;5091533;28;42153;-84
2021/08/31 03:08:16;;;;;;;1.20;1.10;;;;;;;16.91;76.41;99212.41;5070061;28;41356;-86
2021/08/31 03:10:45;;;;;;;1.10;1.00;;;;;;;16.80;76.51;99189.22;5094584;28;40169;-86
2021/08/31 03:13:13;;;;;;;1.50;1.20;;;;;;;16.81;76.15;99190.91;5113215;28;41629;-89
2021/08/31 03:15:43;;;;;;;1.00;0.97;;;;;;;16.88;76.46;99201.94;5075658;28;41837;-90
2021/08/31 03:18:10;;;;;;;0.97;0.77;;;;;;;16.87;76.13;99210.94;5064711;28;41259;-85
2021/08/31 03:20:38;;;;;;;1.43;1.33;;;;;;;16.79;76.38;99203.56;5077992;28;39220;-89
2021/08/31 03:23:05;;;;;;;1.20;1.10;;;;;;;16.80;76.33;99202.59;5094374;28;40738;-83
2021/08/31 03:25:33;;;;;;;1.63;1.30;;;;;;;16.88;76.36;99224.22;5077540;28;41728;-90
2021/08/31 03:28:02;;;;;;;1.07;0.90;;;;;;;16.90;76.72;99218.72;5077089;28;41621;-84
2021/08/31 03:30:29;;;;;;;1.53;1.23;;;;;;;16.75;76.54;99202.13;5093905;28;40887;-88
2021/08/31 03:32:57;;;;;;;1.40;1.30;;;;;;;16.81;76.77;99206.13;5112007;28;41896;-89
2021/08/31 03:35:25;;;;;;;1.33;0.90;;;;;;;16.78;76.38;99209.91;5076164;28;42177;-83
2021/08/31 03:37:52;;;;;;;1.77;1.07;;;;;;;16.88;76.83;99229.56;5112645;28;42771;-87
2021/08/31 03:40:20;;;;;;;0.90;0.90;;;;;;;16.80;76.64;99215.97;5091396;28;39502;-83
2021/08/31 03:42:47;;;;;;;1.47;1.27;;;;;;;16.78;76.38;99217.91;5077417;28;42285;-83
2021/08/31 03:45:17;;;;;;;2.07;1.70;;;;;;;16.87;76.45;99238.56;5076726;28;42226;-86
2021/08/31 03:47:45;;;;;;;1.73;1.57;;;;;;;16.85;76.42;99242.31;5093608;28;41250;-87
2021/08/31 03:50:13;;;;;;;1.37;1.23;;;;;;;16.81;76.83;99235.56;5097856;27;40050;-89
2021/08/31 03:52:40;;;;;;;1.43;1.13;;;;;;;16.90;76.43;99252.66;5090009;27;40682;-88
2021/08/31 03:55:09;;;;;;;1.47;1.37;;;;;;;16.79;76.54;99246.38;5119897;27;43046;-87
2021/08/31 03:57:36;;;;;;;1.57;1.13;;;;;;;16.87;76.65;99254.59;5113504;27;42298;-87
2021/08/31 04:00:05;;;;;;;1.20;1.10;;;;;;;16.87;76.60;99254.59;5097196;27;40377;-89
2021/08/31 04:02:36;;;;;;;2.60;1.40;;;;;;;16.90;76.82;99253.50;5114338;27;40664;-85
2021/08/31 04:05:04;;;;;;;1.20;1.10;;;;;;;16.85;76.80;99247.69;5115193;27;43711;-88
2021/08/31 04:07:32;;;;;;;1.50;1.37;;;;;;;16.89;76.81;99257.16;5097506;27;41391;-86
2021/08/31 04:10:00;;;;;;;1.40;1.30;;;;;;;16.90;76.63;99266.03;5116677;27;39620;-86
2021/08/31 04:12:27;;;;;;;1.33;1.23;;;;;;;16.87;76.58;99259.97;5115133;27;42018;-89
2021/08/31 04:14:55;;;;;;;1.77;1.60;;;;;;;16.85;76.41;99256.56;5098742;27;42290;-85
2021/08/31 04:17:22;;;;;;;1.23;1.13;;;;;;;16.80;76.58;99240.06;5089473;28;42191;-89
2021/08/31 04:19:51;;;;;;;1.37;0.93;;;;;;;16.74;76.71;99240.53;5094534;28;41730;-90
2021/08/31 04:22:19;;;;;;;1.70;1.60;;;;;;;16.81;76.38;99249.75;5079742;28;41017;-86
2021/08/31 04:24:47;;;;;;;1.77;1.20;;;;;;;16.87;76.34;99270.66;5078097;28;41968;-90
2021/08/31 04:27:15;;;;;;;1.07;0.97;;;;;;;16.83;76.21;99279.91;5077044;28;41540;-88
2021/08/31 04:29:42;;;;;;;1.10;1.00;;;;;;;16.82;76.38;99272.84;5079497;27;39442;-86
2021/08/31 04:32:10;;;;;;;1.33;1.13;;;;;;;16.82;76.48;99267.50;5080351;27;40261;-85
2021/08/31 04:34:38;;;;;;;2.63;1.87;;;;;;;16.79;76.32;99259.75;5083649;28;42711;-88
2021/08/31 04:37:07;;;;;;;1.30;1.20;;;;;;;16.82;76.48;99280.88;5096114;28;41266;-90
2021/08/31 04:39:34;;;;;;;1.60;1.50;;;;;;;16.87;76.59;99291.22;5093623;28;39249;-87
2021/08/31 04:42:03;;;;;;;1.10;1.00;;;;;;;16.79;76.29;99273.13;5105496;27;42008;-86
2021/08/31 04:44:31;;;;;;;1.23;1.13;;;;;;;16.84;76.33;99292.31;5116235;27;42948;-85
2021/08/31 04:47:01;;;;;;;1.93;1.20;;;;;;;16.81;76.27;99281.84;5116861;27;42536;-83
2021/08/31 04:49:29;;;;;;;1.10;1.03;;;;;;;16.79;76.22;99278.47;5133671;27;39063;-86
2021/08/31 04:51:57;;;;;;;1.60;1.20;;;;;;;16.80;76.26;99280.16;5117879;27;41529;-86
2021/08/31 04:54:26;;;;;;;1.60;1.50;;;;;;;16.82;76.28;99291.56;5135506;27;43928;-89
2021/08/31 04:56:53;;;;;;;1.10;1.00;;;;;;;16.64;76.36;99277.03;5116984;27;41559;-85
2021/08/31 04:59:22;;;;;;;1.97;1.73;;;;;;;16.68;76.22;99291.88;5103015;28;39125;-89
2021/08/31 05:01:49;;;;;;;2.13;1.67;;;;;;;16.65;76.31;99286.75;5076188;28;40698;-85
2021/08/31 05:04:18;;;;;;;1.43;1.20;;;;;;;16.69;76.46;99280.16;5076109;28;42939;-85
2021/08/31 05:06:45;;;;;;;1.60;1.30;;;;;;;16.69;76.34;99271.31;5077725;27;41188;-90
2021/08/31 05:09:13;;;;;;;1.23;0.93;;;;;;;16.80;76.29;99298.91;5092911;27;41132;-85
2021/08/31 05:11:42;;;;;;;2.10;1.50;;;;;;;16.84;76.06;99300.31;5113599;27;42712;-85
2021/08/31 05:14:10;;;;;;;2.50;2.17;;;;;;;16.89;76.15;99310.66;5094162;27;43115;-88
2021/08/31 05:16:38;;;;;;;1.83;1.37;;;;;;;16.80;76.05;99284.66;5091276;28;41410;-85
2021/08/31 05:19:06;;;;;;;1.43;1.33;;;;;;;17.00;76.07;99302.63;5092649;28;39310;-85
2021/08/31 05:21:34;;;;;;;0.80;0.80;;;;;;;17.01;75.88;99304.31;5096553;27;41612;-88
2021/08/31 05:24:03;;;;;;;1.70;1.27;;;;;;;17.02;75.84;99315.88;5131086;27;42663;-85
2021/08/31 05:26:32;;;;;;;1.67;1.57;;;;;;;16.97;75.83;99320.72;5099131;27;42422;-89
2021/08/31 05:29:01;;;;;;;1.40;1.30;;;;;;;16.98;75.98;99317.94;5118825;27;39223;-85
2021/08/31 05:31:29;;;;;;;1.40;1.30;;;;;;;16.95;75.49;99317.31;5095897;27;40710;-85
2021/08/31 05:33:58;;;;;;;1.60;1.50;;;;;;;16.80;75.63;99301.56;5096126;27;42195;-90
2021/08/31 05:36:27;;;;;;;1.27;1.07;;;;;;;16.91;75.82;99323.94;5093038;27;41202;-88
2021/08/31 05:38:54;;;;;;;1.50;1.40;;;;;;;16.96;75.84;99325.22;5095738;27;39316;-86
2021/08/31 05:41:22;;;;;;;1.90;1.70;;;;;;;16.88;75.61;99325.88;5091782;27;40601;-91
2021/08/31 05:43:49;;;;;;;2.23;1.67;;;;;;;16.92;75.62;99322.94;5105242;27;43194;-84
2021/08/31 05:46:18;;;;;;;1.80;1.50;;;;;;;17.11;75.50;99339.19;5096200;27;41986;-90
2021/08/31 05:48:46;;;;;;;2.17;1.97;;;;;;;17.23;75.58;99341.72;5112515;28;40060;-84
2021/08/31 05:51:14;;;;;;;1.77;1.67;;;;;;;17.27;75.25;99328.09;5125822;27;41993;-85
2021/08/31 05:53:41;;;;;;;2.10;1.90;;;;;;;17.37;74.69;99329.88;5111908;27;41960;-91
2021/08/31 05:56:09;;;;;;;2.03;1.83;;;;;;;17.44;74.30;99332.88;5107382;27;41816;-87
2021/08/31 05:58:36;;;;;;;1.53;1.33;;;;;;;17.52;74.15;99338.47;5098645;27;39740;-91
2021/08/31 06:01:03;;;;;;;2.50;2.30;;;;;;;17.58;73.90;99345.97;5104778;28;40917;-87
2021/08/31 06:03:39;;;;;;;2.33;2.13;;;;;;;17.56;74.18;99342.56;5098431;27;43304;-86
2021/08/31 06:06:07;;;;;;;2.00;1.80;;;;;;;17.53;74.18;99333.00;5116464;27;41268;-85
2021/08/31 06:08:35;;;;;;;2.17;1.97;;;;;;;17.63;73.90;99334.88;5109504;27;40417;-84
2021/08/31 06:11:03;;;;;;;1.97;1.57;;;;;;;17.80;73.86;99345.91;5093347;27;41522;-86
2021/08/31 06:13:30;;;;;;;2.30;2.10;;;;;;;17.89;73.59;99355.88;5111122;27;42083;-86
2021/08/31 06:15:58;;;;;;;1.67;1.53;;;;;;;17.97;73.29;99360.56;5094966;27;41174;-89
2021/08/31 06:18:25;;;;;;;2.10;1.47;;;;;;;18.01;72.94;99359.34;5094179;27;38987;-88
2021/08/31 06:20:54;;;;;;;1.70;1.60;;;;;;;17.92;72.91;99339.53;5110019;27;40833;-82
2021/08/31 06:23:21;;;;;;;2.00;1.50;;;;;;;18.06;72.75;99351.72;5116895;27;41857;-83
2021/08/31 06:25:49;;;;;;;1.97;1.80;;;;;;;18.26;72.27;99369.66;5133133;27;43177;-82
2021/08/31 06:28:16;;;;;;;1.80;1.20;;;;;;;18.32;71.96;99368.25;5114648;27;39775;-82
2021/08/31 06:30:44;;;;;;;2.87;1.87;;;;;;;18.45;71.24;99370.72;5114533;27;41744;-84
2021/08/31 06:33:11;;;;;;;2.30;1.80;;;;;;;18.56;70.47;99384.06;5110939;27;42008;-82
2021/08/31 06:35:39;;;;;;;1.70;1.60;;;;;;;18.68;70.61;99391.06;5111893;27;41546;-87
2021/08/31 06:38:08;;;;;;;1.80;1.60;;;;;;;18.68;69.93;99380.34;5094649;28;39273;-89
2021/08/31 06:40:36;;;;;;;1.87;1.30;;;;;;;18.82;69.58;99395.22;5085437;27;40749;-85
2021/08/31 06:43:03;;;;;;;2.03;1.60;;;;;;;18.89;69.64;99393.72;5073266;28;41611;-84
2021/08/31 06:45:31;;;;;;;1.67;1.50;;;;;;;18.95;69.04;99402.06;5088948;28;41349;-86
2021/08/31 06:47:58;;;;;;;1.30;1.20;;;;;;;18.91;68.55;99397.97;5091508;28;40783;-86
2021/08/31 06:50:26;;;;;;;1.50;1.40;;;;;;;18.95;68.61;99388.66;5090256;28;40741;-86
2021/08/31 06:52:54;;;;;;;1.00;0.90;;;;;;;19.08;68.96;99395.63;5073896;28;42852;-82
2021/08/31 06:55:24;;;;;;;3.30;2.00;;;;;;;19.22;68.56;99404.16;5102565;27;42385;-82
2021/08/31 06:57:51;;;;;;;3.77;2.90;;;;;;;19.37;68.27;99399.25;5146816;27;40929;-84
2021/08/31 07:00:20;;;;;;;2.47;2.00;;;;;;;19.53;67.80;99396.91;5106047;27;40867;-84
2021/08/31 07:02:47;;;;;;;1.47;1.37;;;;;;;19.64;67.21;99385.19;5097313;27;42032;-86
2021/08/31 07:05:15;;;;;;;1.83;1.20;;;;;;;19.80;66.26;99393.50;5092897;27;41573;-88
2021/08/31 07:07:42;;;;;;;2.10;1.50;;;;;;;20.04;66.30;99410.06;5116941;27;39729;-86
2021/08/31 07:10:11;;;;;;;1.20;1.03;;;;;;;20.15;65.08;99406.41;5094000;28;41479;-84
2021/08/31 07:12:40;;;;;;;1.20;1.10;;;;;;;20.22;65.32;99385.16;5073360;28;42311;-84
2021/08/31 07:15:09;;;;;;;2.43;1.53;;;;;;;20.17;63.64;99382.88;5095811;27;41144;-84
2021/08/31 07:17:37;;;;;;;1.57;1.37;;;;;;;20.14;64.01;99393.94;5153875;27;40081;-83
2021/08/31 07:20:06;;;;;;;2.83;1.37;;;;;;;20.18;63.88;99395.34;5132878;27;40809;-85
2021/08/31 07:22:34;;;;;;;1.37;1.27;;;;;;;20.11;64.36;99372.72;5112066;27;45000;-84
2021/08/31 07:25:01;;;;;;;1.53;1.00;;;;;;;20.69;62.00;99394.97;5111689;27;41242;-84
2021/08/31 07:27:29;;;;;;;1.30;1.20;;;;;;;21.06;61.09;99400.34;5115632;27;40261;-82
2021/08/31 07:29:58;;;;;;;1.60;1.50;;;;;;;21.41;60.01;99415.78;5133620;27;40977;-84
2021/08/31 07:32:26;;;;;;;1.57;1.10;;;;;;;21.61;58.44;99427.31;5112846;27;42787;-83
2021/08/31 07:34:53;;;;;;;1.53;1.43;;;;;;;21.63;56.99;99411.81;5114356;27;41158;-85
2021/08/31 07:37:21;;;;;;;1.33;1.23;;;;;;;21.65;58.39;99412.50;5107121;27;41104;-87
2021/08/31 07:39:49;;;;;;;1.17;1.10;;;;;;;21.59;57.07;99421.22;5117879;27;40747;-89
2021/08/31 07:42:16;;;;;;;1.37;1.27;;;;;;;21.71;58.08;99436.16;5116547;27;41961;-85
2021/08/31 07:44:44;;;;;;;1.47;1.30;;;;;;;21.88;59.10;99410.22;5129744;27;41349;-87
2021/08/31 07:47:14;;;;;;;1.60;1.33;;;;;;;22.19;57.63;99432.25;5120581;27;39928;-85
2021/08/31 07:49:42;;;;;;;1.40;0.97;;;;;;;22.28;56.45;99420.53;5114476;27;41106;-84
2021/08/31 07:52:10;;;;;;;1.40;1.30;;;;;;;22.52;55.02;99450.41;5110244;27;43167;-82
2021/08/31 07:54:37;;;;;;;1.17;1.03;;;;;;;22.94;53.89;99460.53;5136210;27;42422;-82
2021/08/31 07:57:05;;;;;;;1.20;1.10;;;;;;;23.55;53.99;99462.19;5153237;27;40691;-83
2021/08/31 07:59:33;;;;;;;1.37;1.20;;;;;;;23.77;52.41;99466.97;5117651;27;41165;-83
2021/08/31 08:02:00;;;;;;;1.23;1.13;;;;;;;23.85;50.81;99456.22;5099968;28;41828;-86
2021/08/31 08:04:36;;;;;;;1.93;1.40;;;;;;;24.00;49.72;99484.28;5096718;27;41639;-83
2021/08/31 08:07:04;;;;;;;1.10;0.90;;;;;;;24.18;49.09;99467.91;5102695;27;39540;-84
2021/08/31 08:09:32;;;;;;;1.60;1.27;;;;;;;24.68;49.27;99483.19;5115403;27;42404;-83
2021/08/31 08:11:59;;;;;;;1.40;1.30;;;;;;;25.05;48.65;99475.38;5104017;28;43122;-87
2021/08/31 08:14:28;;;;;;;1.50;1.40;;;;;;;25.16;47.52;99466.00;5113412;27;41367;-89
2021/08/31 08:16:56;;;;;;;1.37;1.27;;;;;;;25.59;46.57;99480.09;5122190;27;39926;-87
2021/08/31 08:19:23;;;;;;;1.40;1.27;;;;;;;25.96;46.84;99483.00;5110815;27;41111;-86
2021/08/31 08:21:52;;;;;;;1.40;1.30;;;;;;;26.34;47.15;99472.22;5092916;28;43405;-84
2021/08/31 08:24:20;;;;;;;3.03;1.80;;;;;;;26.79;44.53;99483.03;5110557;27;41263;-88
2021/08/31 08:26:48;;;;;;;1.70;1.60;;;;;;;27.71;43.88;99482.72;5117338;27;40608;-88
2021/08/31 08:29:16;;;;;;;1.23;1.17;;;;;;;28.66;41.49;99507.03;5119063;27;41667;-84
2021/08/31 08:31:45;;;;;;;1.60;1.30;;;;;;;28.62;41.64;99508.47;5123148;27;43556;-86
2021/08/31 08:34:13;;;;;;;1.87;1.77;;;;;;;28.52;40.45;99509.66;5100447;27;41218;-88
2021/08/31 08:36:40;;;;;;;1.90;1.80;;;;;;;29.33;40.33;99518.28;5113590;27;39134;-85
2021/08/31 08:39:09;;;;;;;1.60;1.50;;;;;;;29.81;37.16;99532.00;5108556;28;40990;-82
2021/08/31 08:41:37;;;;;;;1.90;1.80;;;;;;;30.12;33.48;99567.91;5113785;27;41671;-85
2021/08/31 08:44:05;;;;;;;2.00;1.53;;;;;;;30.03;34.81;99544.53;5093512;28;41996;-82
2021/08/31 08:46:33;;;;;;;1.77;1.43;;;;;;;29.78;36.29;99526.97;5093237;28;39802;-86
2021/08/31 08:49:00;;;;;;;1.20;1.00;;;;;;;29.46;35.63;99502.00;5096084;27;42065;-87
2021/08/31 08:51:28;;;;;;;1.20;1.10;;;;;;;29.49;36.28;99528.91;5105932;27;41544;-87
2021/08/31 08:53:55;;;;;;;1.67;1.57;;;;;;;29.22;36.75;99543.38;5096485;28;41245;-82
2021/08/31 08:56:25;;;;;;;1.77;1.63;;;;;;;28.89;36.33;99534.97;5093430;28;39299;-85
2021/08/31 08:58:53;;;;;;;1.27;1.17;;;;;;;28.61;36.21;99540.34;5116630;27;40707;-88
2021/08/31 09:01:23;;;;;;;1.53;1.30;;;;;;;28.33;37.72;99542.13;5093550;27;43286;-87
2021/08/31 09:03:55;;;;;;;1.37;1.27;;;;;;;28.11;39.13;99527.59;5095194;27;41640;-85
2021/08/31 09:06:23;;;;;;;1.47;1.37;;;;;;;27.89;40.72;99516.69;5112136;27;38969;-87
2021/08/31 09:08:58;;;;;;;1.30;1.20;;;;;;;27.49;41.23;99512.56;5107064;28;41470;-90
2021/08/31 09:11:30;;;;;;;1.20;1.10;;;;;;;27.16;40.43;99511.25;5115357;27;41682;-87
2021/08/31 09:14:18;;;;;;;1.50;1.07;;;;;;;26.83;40.20;99527.81;5136235;27;41343;-89
2021/08/31 09:16:48;;;;;;;2.07;1.30;;;;;;;26.60;41.59;99518.00;5134138;27;40646;-87
2021/08/31 09:19:16;;;;;;;1.77;1.57;;;;;;;26.46;41.23;99508.78;5153020;27;43384;-87
2021/08/31 09:21:47;;;;;;;1.70;1.50;;;;;;;26.57;41.88;99524.69;5139341;27;42428;-87
2021/08/31 09:24:14;;;;;;;0.93;0.93;;;;;;;26.44;41.87;99497.28;5140107;27;42527;-86
2021/08/31 09:26:45;;;;;;;1.60;1.37;;;;;;;26.76;41.73;99520.59;5124647;28;38937;-86
2021/08/31 09:29:16;;;;;;;1.77;1.63;;;;;;;26.81;41.11;99535.34;5106833;28;41860;-85
2021/08/31 09:31:54;;;;;;;1.13;1.03;;;;;;;26.99;40.59;99545.06;5106181;27;42214;-83
2021/08/31 09:34:42;;;;;;;1.10;1.00;;;;;;;27.03;41.02;99527.34;5124066;27;43010;-83
2021/08/31 09:37:32;;;;;;;1.60;1.23;;;;;;;26.94;41.16;99533.91;5138131;27;38953;-81
2021/08/31 09:40:15;;;;;;;3.00;1.50;;;;;;;26.68;40.94;99535.13;5100252;27;42840;-78
2021/08/31 09:43:03;;;;;;;1.00;1.00;;;;;;;26.45;41.62;99543.28;5085852;27;41801;-84
2021/08/31 09:45:33;;;;;;;1.27;1.17;;;;;;;26.45;42.24;99528.84;5104731;27;41285;-89
2021/08/31 09:48:02;;;;;;;1.63;1.50;;;;;;;26.67;42.18;99533.44;5124262;27;39083;-83
2021/08/31 09:50:33;;;;;;;1.23;1.23;;;;;;;26.64;41.47;99539.22;5110808;27;40954;-85
2021/08/31 09:53:13;;;;;;;1.53;1.30;;;;;;;26.75;41.28;99537.94;5095015;27;41973;-85
2021/08/31 09:55:42;;;;;;;1.70;1.40;;;;;;;27.21;40.58;99544.16;5142449;27;43219;-87
2021/08/31 09:58:17;;;;;;;1.33;1.13;;;;;;;27.53;40.52;99532.09;5111177;27;40051;-84
2021/08/31 10:00:47;;;;;;;1.10;1.00;;;;;;;27.63;39.08;99550.88;5107081;27;41564;-86
2021/08/31 10:03:16;;;;;;;2.60;1.57;;;;;;;27.81;39.95;99545.91;5099611;27;42013;-89
2021/08/31 10:05:45;;;;;;;1.43;1.10;;;;;;;27.98;40.05;99552.81;5141297;27;42527;-84
2021/08/31 10:08:14;;;;;;;1.97;1.70;;;;;;;28.21;39.09;99556.25;5132714;27;40973;-86
2021/08/31 10:10:44;;;;;;;1.47;1.10;;;;;;;28.22;39.20;99563.38;5092582;28;40732;-86
2021/08/31 10:13:15;;;;;;;1.50;1.40;;;;;;;27.73;40.35;99544.09;5094256;27;41789;-86
2021/08/31 10:15:46;;;;;;;1.97;1.50;;;;;;;27.17;40.54;99546.41;5107520;27;42154;-85
2021/08/31 10:18:15;;;;;;;1.27;1.17;;;;;;;26.46;42.54;99535.94;5129354;27;40023;-84
2021/08/31 10:20:47;;;;;;;1.60;1.33;;;;;;;25.97;43.78;99541.66;5152328;27;42164;-86
2021/08/31 10:23:17;;;;;;;2.47;1.60;;;;;;;25.41;45.23;99511.00;5103091;27;42590;-85
2021/08/31 10:25:45;;;;;;;0.93;0.90;;;;;;;24.97;44.88;99520.63;5100679;27;42087;-82
2021/08/31 10:28:30;;;;;;;1.83;1.40;;;;;;;24.73;46.55;99528.75;5111561;27;38949;-81
2021/08/31 10:30:58;;;;;;;1.40;1.20;;;;;;;24.42;46.13;99505.03;5101159;27;40868;-83
2021/08/31 10:33:40;;;;;;;1.77;1.63;;;;;;;24.42;47.12;99525.84;5115553;27;42723;-78
2021/08/31 10:36:12;;;;;;;1.83;1.73;;;;;;;24.36;47.25;99531.94;5128413;27;43204;-86
2021/08/31 10:38:57;;;;;;;1.23;1.13;;;;;;;24.32;47.35;99536.84;5104211;27;39272;-84
2021/08/31 10:41:44;;;;;;;1.77;1.40;;;;;;;24.28;47.77;99528.19;5094929;27;40548;-91
2021/08/31 10:44:40;;;;;;;2.10;1.20;;;;;;;24.29;47.81;99538.00;5100223;27;42104;-88
2021/08/31 10:47:13;;;;;;;1.50;1.37;;;;;;;24.36;47.92;99527.34;5098885;27;41603;-86
2021/08/31 10:50:18;;;;;;;1.83;1.20;;;;;;;24.64;47.70;99531.44;5093812;27;39501;-83
2021/08/31 10:52:50;;;;;;;1.70;1.60;;;;;;;25.02;47.57;99529.91;5091353;28;42076;-81
2021/08/31 10:55:36;;;;;;;1.50;1.40;;;;;;;25.61;46.60;99529.59;5087447;28;43188;-82
2021/08/31 10:58:06;;;;;;;1.50;1.30;;;;;;;25.73;44.65;99512.75;5103313;27;41244;-87
2021/08/31 11:00:54;;;;;;;1.70;1.20;;;;;;;26.05;45.46;99533.47;5097788;27;39824;-83
2021/08/31 11:03:37;;;;;;;1.27;1.17;;;;;;;26.13;44.81;99541.56;5118992;27;40652;-84
2021/08/31 11:06:29;;;;;;;2.27;1.63;;;;;;;26.35;44.38;99549.94;5111968;27;41595;-87
2021/08/31 11:09:15;;;;;;;1.33;1.20;;;;;;;26.58;43.84;99544.53;5076821;28;41236;-84
2021/08/31 11:11:45;;;;;;;2.37;1.60;;;;;;;26.61;43.12;99547.72;5096565;28;39924;-88
2021/08/31 11:14:14;;;;;;;1.40;1.30;;;;;;;26.70;44.97;99540.38;5129324;27;41459;-88
2021/08/31 11:16:48;;;;;;;1.53;1.40;;;;;;;26.84;43.57;99548.53;5094431;28;42186;-81
2021/08/31 11:19:27;;;;;;;2.17;1.97;;;;;;;26.89;43.89;99525.41;5110568;27;41334;-85
2021/08/31 11:21:55;;;;;;;1.37;1.27;;;;;;;26.90;43.95;99533.38;5132750;27;39981;-82
2021/08/31 11:24:23;;;;;;;1.53;1.33;;;;;;;26.76;44.22;99537.75;5112489;27;42689;-85
2021/08/31 11:26:57;;;;;;;1.30;1.20;;;;;;;26.45;44.32;99542.44;5106406;28;42158;-84
2021/08/31 11:29:25;;;;;;;1.33;1.07;;;;;;;26.08;44.28;99552.13;5100170;27;41466;-80
2021/08/31 11:32:00;;;;;;;2.27;1.83;;;;;;;25.54;45.47;99518.59;5093912;28;39585;-83
2021/08/31 11:34:27;;;;;;;2.17;1.50;;;;;;;25.27;46.03;99525.28;5127512;27;40675;-86
2021/08/31 11:37:03;;;;;;;1.87;1.77;;;;;;;24.74;45.94;99495.19;5113775;27;42923;-82
2021/08/31 11:39:31;;;;;;;1.67;1.30;;;;;;;24.66;46.99;99513.16;5123297;27;42474;-85
2021/08/31 11:41:58;;;;;;;1.60;1.17;;;;;;;24.56;46.75;99526.03;5108257;27;39798;-85
2021/08/31 11:44:26;;;;;;;1.40;1.30;;;;;;;24.59;46.38;99531.09;5098779;27;40772;-83